DAL2573 KEWR-KDTW
Flight info
| Callsign | DAL2573 |
|---|---|
| Flight time | 1h 14m |
| Altitude | 34000 |
| Route | COATE Q436 REXXY JACCI FERRL2 |
| Aircraft | A320/M-SDE3FGHIRWY/LB1 |
Departure
| Time | 2026-04-24 21:25 |
|---|---|
| Airport | Newark Liberty International Airport (KEWR) |
Arrival
| Time | 2026-04-24 22:40 |
|---|---|
| Airport | Detroit Metropolitan Wayne County Airport (KDTW) |
| Time | Latitude | Longitude | Altitude | Speed | Heading |
|---|---|---|---|---|---|
| 2026-04-24 21:07 | 40.68294 | -74.18669 | 26 ft | 0 kts | 338° |
| 2026-04-24 21:18 | 40.68275 | -74.18659 | 24 ft | 4 kts | 338° |
| 2026-04-24 21:18 | 40.68250 | -74.18646 | 24 ft | 4 kts | 338° |
| 2026-04-24 21:19 | 40.68225 | -74.18635 | 23 ft | 4 kts | 350° |
| 2026-04-24 21:19 | 40.68198 | -74.18633 | 23 ft | 4 kts | 9° |
| 2026-04-24 21:19 | 40.68173 | -74.18640 | 22 ft | 2 kts | 12° |
| 2026-04-24 21:19 | 40.68171 | -74.18640 | 22 ft | 0 kts | 12° |
| 2026-04-24 21:22 | 40.68174 | -74.18640 | 25 ft | 4 kts | 12° |
| 2026-04-24 21:22 | 40.68242 | -74.18578 | 22 ft | 14 kts | 61° |
| 2026-04-24 21:22 | 40.68245 | -74.18428 | 25 ft | 20 kts | 94° |
| 2026-04-24 21:22 | 40.68233 | -74.18235 | 22 ft | 22 kts | 95° |
| 2026-04-24 21:23 | 40.68235 | -74.18057 | 22 ft | 17 kts | 94° |
| 2026-04-24 21:23 | 40.68201 | -74.17904 | 22 ft | 18 kts | 116° |
| 2026-04-24 21:23 | 40.68147 | -74.17758 | 22 ft | 15 kts | 122° |
| 2026-04-24 21:23 | 40.68054 | -74.17779 | 22 ft | 18 kts | 205° |
| 2026-04-24 21:24 | 40.67917 | -74.17865 | 23 ft | 24 kts | 206° |
| 2026-04-24 21:24 | 40.67776 | -74.17955 | 22 ft | 21 kts | 206° |
| 2026-04-24 21:24 | 40.67696 | -74.17966 | 22 ft | 11 kts | 122° |
| 2026-04-24 21:24 | 40.67674 | -74.17865 | 22 ft | 11 kts | 59° |
| 2026-04-24 21:25 | 40.67798 | -74.17781 | 21 ft | 46 kts | 26° |
| 2026-04-24 21:25 | 40.68320 | -74.17448 | 24 ft | 117 kts | 25° |
| 2026-04-24 21:25 | 40.69227 | -74.16872 | 26 ft | 170 kts | 27° |
| 2026-04-24 21:25 | 40.70311 | -74.16175 | 625 ft | 174 kts | 28° |
| 2026-04-24 21:26 | 40.71379 | -74.15497 | 1402 ft | 171 kts | 27° |
| 2026-04-24 21:26 | 40.72489 | -74.14792 | 2003 ft | 184 kts | 26° |
| 2026-04-24 21:26 | 40.73730 | -74.14150 | 2343 ft | 206 kts | 8° |
| 2026-04-24 21:26 | 40.75184 | -74.14490 | 2715 ft | 227 kts | 328° |
| 2026-04-24 21:27 | 40.76398 | -74.15946 | 3223 ft | 247 kts | 313° |
| 2026-04-24 21:27 | 40.77589 | -74.17638 | 4073 ft | 254 kts | 311° |
| 2026-04-24 21:27 | 40.78785 | -74.19364 | 5065 ft | 256 kts | 311° |
| 2026-04-24 21:27 | 40.79988 | -74.21106 | 6060 ft | 258 kts | 310° |
| 2026-04-24 21:28 | 40.81198 | -74.22854 | 7035 ft | 257 kts | 311° |
| 2026-04-24 21:28 | 40.82399 | -74.24584 | 8078 ft | 254 kts | 311° |
| 2026-04-24 21:28 | 40.83582 | -74.26283 | 9205 ft | 249 kts | 312° |
| 2026-04-24 21:28 | 40.84746 | -74.27954 | 10252 ft | 247 kts | 313° |
| 2026-04-24 21:29 | 40.85966 | -74.29702 | 10594 ft | 270 kts | 313° |
| 2026-04-24 21:29 | 40.87299 | -74.31604 | 10847 ft | 294 kts | 313° |
| 2026-04-24 21:29 | 40.88741 | -74.33662 | 11018 ft | 317 kts | 313° |
| 2026-04-24 21:29 | 40.90269 | -74.35856 | 11411 ft | 329 kts | 313° |
| 2026-04-24 21:30 | 40.91815 | -74.38077 | 11985 ft | 337 kts | 313° |
| 2026-04-24 21:30 | 40.93416 | -74.40371 | 12649 ft | 341 kts | 313° |
| 2026-04-24 21:30 | 40.95030 | -74.42688 | 13357 ft | 345 kts | 313° |
| 2026-04-24 21:30 | 40.96662 | -74.45037 | 14006 ft | 348 kts | 313° |
| 2026-04-24 21:31 | 40.98308 | -74.47410 | 14626 ft | 352 kts | 313° |
| 2026-04-24 21:31 | 40.99971 | -74.49805 | 15234 ft | 355 kts | 313° |
| 2026-04-24 21:31 | 41.01654 | -74.52227 | 15853 ft | 358 kts | 313° |
| 2026-04-24 21:31 | 41.03348 | -74.54666 | 16466 ft | 361 kts | 313° |
| 2026-04-24 21:32 | 41.05053 | -74.57123 | 17072 ft | 364 kts | 313° |
| 2026-04-24 21:32 | 41.06774 | -74.59603 | 17644 ft | 367 kts | 313° |
| 2026-04-24 21:32 | 41.08509 | -74.62108 | 18219 ft | 370 kts | 313° |
| 2026-04-24 21:32 | 41.10259 | -74.64635 | 18693 ft | 373 kts | 313° |
| 2026-04-24 21:33 | 41.12018 | -74.67180 | 19179 ft | 376 kts | 313° |
| 2026-04-24 21:33 | 41.13169 | -74.68901 | 19483 ft | 378 kts | 309° |
| 2026-04-24 21:33 | 41.15068 | -74.72800 | 20085 ft | 383 kts | 302° |
| 2026-04-24 21:33 | 41.16400 | -74.75869 | 20522 ft | 385 kts | 302° |
| 2026-04-24 21:34 | 41.17741 | -74.78955 | 20953 ft | 387 kts | 302° |
| 2026-04-24 21:34 | 41.19093 | -74.82063 | 21370 ft | 390 kts | 302° |
| 2026-04-24 21:34 | 41.20451 | -74.85186 | 21799 ft | 391 kts | 302° |
| 2026-04-24 21:34 | 41.21816 | -74.88319 | 22195 ft | 393 kts | 302° |
| 2026-04-24 21:35 | 41.23189 | -74.91476 | 22580 ft | 396 kts | 302° |
| 2026-04-24 21:35 | 41.24567 | -74.94651 | 22962 ft | 398 kts | 302° |
| 2026-04-24 21:35 | 41.25952 | -74.97851 | 23339 ft | 400 kts | 302° |
| 2026-04-24 21:35 | 41.27343 | -75.01067 | 23649 ft | 402 kts | 302° |
| 2026-04-24 21:36 | 41.28741 | -75.04299 | 23958 ft | 404 kts | 302° |
| 2026-04-24 21:36 | 41.30139 | -75.07539 | 24243 ft | 405 kts | 302° |
| 2026-04-24 21:36 | 41.31545 | -75.10804 | 24499 ft | 408 kts | 302° |
| 2026-04-24 21:36 | 41.32957 | -75.14087 | 24774 ft | 410 kts | 302° |
| 2026-04-24 21:37 | 41.34376 | -75.17382 | 25052 ft | 411 kts | 303° |
| 2026-04-24 21:37 | 41.35778 | -75.20644 | 25318 ft | 412 kts | 303° |
| 2026-04-24 21:37 | 41.37199 | -75.23958 | 25584 ft | 413 kts | 303° |
| 2026-04-24 21:37 | 41.38623 | -75.27283 | 25845 ft | 414 kts | 303° |
| 2026-04-24 21:38 | 41.40051 | -75.30618 | 26060 ft | 415 kts | 303° |
| 2026-04-24 21:38 | 41.41483 | -75.33958 | 26266 ft | 416 kts | 303° |
| 2026-04-24 21:38 | 41.42916 | -75.37305 | 26470 ft | 416 kts | 303° |
| 2026-04-24 21:38 | 41.44347 | -75.40656 | 26734 ft | 415 kts | 303° |
| 2026-04-24 21:39 | 41.45769 | -75.43998 | 27002 ft | 414 kts | 303° |
| 2026-04-24 21:39 | 41.47182 | -75.47348 | 27226 ft | 416 kts | 301° |
| 2026-04-24 21:39 | 41.48341 | -75.50895 | 27499 ft | 419 kts | 296° |
| 2026-04-24 21:39 | 41.49378 | -75.54515 | 27819 ft | 417 kts | 296° |
| 2026-04-24 21:40 | 41.50412 | -75.58119 | 28138 ft | 415 kts | 296° |
| 2026-04-24 21:40 | 41.51444 | -75.61706 | 28432 ft | 413 kts | 296° |
| 2026-04-24 21:40 | 41.52475 | -75.65281 | 28732 ft | 412 kts | 296° |
| 2026-04-24 21:40 | 41.53499 | -75.68844 | 29030 ft | 411 kts | 296° |
| 2026-04-24 21:41 | 41.54519 | -75.72404 | 29341 ft | 410 kts | 296° |
| 2026-04-24 21:41 | 41.55533 | -75.75954 | 29663 ft | 409 kts | 296° |
| 2026-04-24 21:41 | 41.56545 | -75.79497 | 29946 ft | 407 kts | 297° |
| 2026-04-24 21:41 | 41.57553 | -75.83033 | 30186 ft | 408 kts | 297° |
| 2026-04-24 21:42 | 41.58560 | -75.86572 | 30410 ft | 407 kts | 296° |
| 2026-04-24 21:42 | 41.59561 | -75.90103 | 30681 ft | 406 kts | 296° |
| 2026-04-24 21:42 | 41.60558 | -75.93628 | 30951 ft | 405 kts | 296° |
| 2026-04-24 21:42 | 41.61551 | -75.97138 | 31220 ft | 403 kts | 297° |
| 2026-04-24 21:43 | 41.62544 | -76.00643 | 31502 ft | 402 kts | 297° |
| 2026-04-24 21:43 | 41.63529 | -76.04129 | 31781 ft | 401 kts | 296° |
| 2026-04-24 21:43 | 41.64509 | -76.07608 | 32072 ft | 399 kts | 296° |
| 2026-04-24 21:43 | 41.65484 | -76.11077 | 32368 ft | 398 kts | 296° |
| 2026-04-24 21:44 | 41.66443 | -76.14488 | 32611 ft | 397 kts | 297° |
| 2026-04-24 21:44 | 41.67413 | -76.17941 | 32839 ft | 397 kts | 296° |
| 2026-04-24 21:44 | 41.68383 | -76.21392 | 33085 ft | 396 kts | 297° |
| 2026-04-24 21:44 | 41.69353 | -76.24839 | 33351 ft | 396 kts | 297° |
| 2026-04-24 21:45 | 41.70318 | -76.28282 | 33609 ft | 395 kts | 296° |
| 2026-04-24 21:45 | 41.71281 | -76.31724 | 33834 ft | 394 kts | 296° |
| 2026-04-24 21:45 | 41.72242 | -76.35161 | 33889 ft | 395 kts | 296° |
| 2026-04-24 21:46 | 41.74162 | -76.42042 | 33879 ft | 395 kts | 296° |
| 2026-04-24 21:46 | 41.76070 | -76.48939 | 33891 ft | 395 kts | 296° |
| 2026-04-24 21:47 | 41.77990 | -76.55869 | 33891 ft | 399 kts | 296° |
| 2026-04-24 21:47 | 41.79933 | -76.62861 | 33890 ft | 401 kts | 296° |
| 2026-04-24 21:48 | 41.81868 | -76.69874 | 33894 ft | 401 kts | 296° |
| 2026-04-24 21:48 | 41.83797 | -76.76896 | 33895 ft | 401 kts | 296° |
| 2026-04-24 21:49 | 41.85724 | -76.83921 | 33913 ft | 401 kts | 296° |
| 2026-04-24 21:49 | 41.87643 | -76.90951 | 33889 ft | 402 kts | 296° |
| 2026-04-24 21:50 | 41.89563 | -76.98022 | 33887 ft | 404 kts | 296° |
| 2026-04-24 21:50 | 41.91163 | -77.03915 | 33890 ft | 405 kts | 296° |
| 2026-04-24 21:51 | 41.93398 | -77.12180 | 33900 ft | 406 kts | 296° |
| 2026-04-24 21:51 | 41.95314 | -77.19312 | 33902 ft | 406 kts | 296° |
| 2026-04-24 21:52 | 41.96904 | -77.25250 | 33869 ft | 407 kts | 295° |
| 2026-04-24 21:52 | 41.98827 | -77.32418 | 33875 ft | 408 kts | 295° |
| 2026-04-24 21:53 | 42.00748 | -77.39610 | 33889 ft | 409 kts | 295° |
| 2026-04-24 21:53 | 42.03083 | -77.46523 | 33892 ft | 406 kts | 300° |
| 2026-04-24 21:54 | 42.05517 | -77.53381 | 33901 ft | 406 kts | 300° |
| 2026-04-24 21:54 | 42.07949 | -77.60246 | 33869 ft | 407 kts | 300° |
| 2026-04-24 21:55 | 42.10389 | -77.67140 | 33896 ft | 408 kts | 300° |
| 2026-04-24 21:55 | 42.12806 | -77.74010 | 33916 ft | 409 kts | 300° |
| 2026-04-24 21:56 | 42.15247 | -77.80979 | 33919 ft | 409 kts | 300° |
| 2026-04-24 21:56 | 42.17660 | -77.87862 | 33927 ft | 409 kts | 300° |
| 2026-04-24 21:57 | 42.20089 | -77.94796 | 33921 ft | 409 kts | 300° |
| 2026-04-24 21:57 | 42.22507 | -78.01744 | 33895 ft | 410 kts | 299° |
| 2026-04-24 21:58 | 42.24926 | -78.08710 | 33899 ft | 410 kts | 299° |
| 2026-04-24 21:58 | 42.27353 | -78.15692 | 33899 ft | 411 kts | 299° |
| 2026-04-24 21:59 | 42.29774 | -78.22682 | 33903 ft | 411 kts | 299° |
| 2026-04-24 21:59 | 42.32191 | -78.29677 | 33906 ft | 411 kts | 299° |
| 2026-04-24 22:00 | 42.34598 | -78.36685 | 33905 ft | 411 kts | 299° |
| 2026-04-24 22:00 | 42.37004 | -78.43703 | 33903 ft | 411 kts | 299° |
| 2026-04-24 22:01 | 42.39394 | -78.50670 | 33901 ft | 411 kts | 299° |
| 2026-04-24 22:01 | 42.41792 | -78.57695 | 33894 ft | 411 kts | 299° |
| 2026-04-24 22:02 | 42.44189 | -78.64728 | 33887 ft | 411 kts | 298° |
| 2026-04-24 22:02 | 42.46428 | -78.71858 | 33856 ft | 416 kts | 290° |
| 2026-04-24 22:03 | 42.47213 | -78.79699 | 33852 ft | 425 kts | 278° |
| 2026-04-24 22:03 | 42.47477 | -78.87705 | 33843 ft | 426 kts | 278° |
| 2026-04-24 22:04 | 42.47742 | -78.95726 | 33853 ft | 426 kts | 278° |
| 2026-04-24 22:04 | 42.48002 | -79.03748 | 33864 ft | 426 kts | 278° |
| 2026-04-24 22:05 | 42.48253 | -79.11781 | 33853 ft | 427 kts | 277° |
| 2026-04-24 22:05 | 42.48495 | -79.19810 | 33865 ft | 427 kts | 277° |
| 2026-04-24 22:06 | 42.48739 | -79.27840 | 33872 ft | 427 kts | 277° |
| 2026-04-24 22:06 | 42.48976 | -79.35877 | 33877 ft | 427 kts | 277° |
| 2026-04-24 22:07 | 42.49199 | -79.43866 | 33856 ft | 427 kts | 277° |
| 2026-04-24 22:07 | 42.49424 | -79.51911 | 33863 ft | 427 kts | 277° |
| 2026-04-24 22:08 | 42.49649 | -79.59957 | 33870 ft | 427 kts | 277° |
| 2026-04-24 22:08 | 42.49862 | -79.68001 | 33867 ft | 428 kts | 276° |
| 2026-04-24 22:09 | 42.50066 | -79.76057 | 33874 ft | 428 kts | 276° |
| 2026-04-24 22:09 | 42.50268 | -79.84115 | 33862 ft | 428 kts | 276° |
| 2026-04-24 22:10 | 42.50468 | -79.92191 | 33867 ft | 429 kts | 276° |
| 2026-04-24 22:10 | 42.50660 | -80.00273 | 33868 ft | 429 kts | 276° |
| 2026-04-24 22:11 | 42.50837 | -80.08370 | 33868 ft | 430 kts | 276° |
| 2026-04-24 22:11 | 42.51017 | -80.16412 | 33871 ft | 430 kts | 276° |
| 2026-04-24 22:12 | 42.51195 | -80.24527 | 33852 ft | 431 kts | 276° |
| 2026-04-24 22:12 | 42.51364 | -80.32666 | 33857 ft | 433 kts | 276° |
| 2026-04-24 22:13 | 42.51525 | -80.40824 | 33861 ft | 433 kts | 276° |
| 2026-04-24 22:13 | 42.51682 | -80.48989 | 33859 ft | 434 kts | 276° |
| 2026-04-24 22:14 | 42.51831 | -80.57171 | 33849 ft | 435 kts | 275° |
| 2026-04-24 22:14 | 42.51971 | -80.65377 | 33848 ft | 436 kts | 275° |
| 2026-04-24 22:15 | 42.52070 | -80.73600 | 33848 ft | 437 kts | 274° |
| 2026-04-24 22:15 | 42.52137 | -80.81842 | 33849 ft | 437 kts | 274° |
| 2026-04-24 22:16 | 42.52201 | -80.90024 | 33373 ft | 435 kts | 274° |
| 2026-04-24 22:16 | 42.52235 | -80.94130 | 32336 ft | 437 kts | 273° |
| 2026-04-24 22:16 | 42.52272 | -80.98256 | 31305 ft | 439 kts | 272° |
| 2026-04-24 22:16 | 42.52308 | -81.02409 | 30272 ft | 442 kts | 272° |
| 2026-04-24 22:17 | 42.52343 | -81.06573 | 29364 ft | 440 kts | 272° |
| 2026-04-24 22:17 | 42.52373 | -81.10696 | 28595 ft | 435 kts | 272° |
| 2026-04-24 22:17 | 42.52397 | -81.14776 | 27836 ft | 430 kts | 272° |
| 2026-04-24 22:17 | 42.52420 | -81.18812 | 27102 ft | 426 kts | 272° |
| 2026-04-24 22:18 | 42.52445 | -81.22810 | 26401 ft | 422 kts | 272° |
| 2026-04-24 22:18 | 42.52471 | -81.26767 | 25723 ft | 418 kts | 272° |
| 2026-04-24 22:18 | 42.52494 | -81.30694 | 25076 ft | 414 kts | 272° |
| 2026-04-24 22:18 | 42.52515 | -81.34562 | 24533 ft | 408 kts | 272° |
| 2026-04-24 22:19 | 42.52433 | -81.38392 | 23929 ft | 406 kts | 266° |
| 2026-04-24 22:19 | 42.52151 | -81.42178 | 23316 ft | 403 kts | 266° |
| 2026-04-24 22:19 | 42.51869 | -81.45938 | 22646 ft | 399 kts | 266° |
| 2026-04-24 22:19 | 42.51588 | -81.49665 | 22030 ft | 396 kts | 266° |
| 2026-04-24 22:20 | 42.51309 | -81.53362 | 21439 ft | 392 kts | 266° |
| 2026-04-24 22:20 | 42.51033 | -81.57022 | 20881 ft | 389 kts | 266° |
| 2026-04-24 22:20 | 42.50760 | -81.60651 | 20348 ft | 386 kts | 266° |
| 2026-04-24 22:20 | 42.50486 | -81.64253 | 19818 ft | 383 kts | 265° |
| 2026-04-24 22:21 | 42.50216 | -81.67824 | 19292 ft | 379 kts | 265° |
| 2026-04-24 22:21 | 42.49948 | -81.71363 | 18807 ft | 376 kts | 265° |
| 2026-04-24 22:21 | 42.49678 | -81.74872 | 18311 ft | 373 kts | 265° |
| 2026-04-24 22:21 | 42.49411 | -81.78349 | 17781 ft | 370 kts | 265° |
| 2026-04-24 22:22 | 42.49148 | -81.81750 | 17252 ft | 366 kts | 265° |
| 2026-04-24 22:22 | 42.48882 | -81.85168 | 16710 ft | 363 kts | 265° |
| 2026-04-24 22:22 | 42.48618 | -81.88563 | 16171 ft | 361 kts | 264° |
| 2026-04-24 22:22 | 42.48352 | -81.91927 | 15665 ft | 358 kts | 264° |
| 2026-04-24 22:23 | 42.48086 | -81.95266 | 15185 ft | 354 kts | 264° |
| 2026-04-24 22:23 | 42.47822 | -81.98571 | 14671 ft | 352 kts | 264° |
| 2026-04-24 22:23 | 42.47562 | -82.01852 | 14162 ft | 350 kts | 264° |
| 2026-04-24 22:23 | 42.47303 | -82.05116 | 13682 ft | 347 kts | 264° |
| 2026-04-24 22:24 | 42.47047 | -82.08347 | 13155 ft | 344 kts | 264° |
| 2026-04-24 22:24 | 42.46794 | -82.11556 | 12631 ft | 340 kts | 264° |
| 2026-04-24 22:24 | 42.46538 | -82.14724 | 12105 ft | 337 kts | 263° |
| 2026-04-24 22:24 | 42.46282 | -82.17866 | 11566 ft | 334 kts | 263° |
| 2026-04-24 22:25 | 42.46025 | -82.20980 | 11118 ft | 331 kts | 263° |
| 2026-04-24 22:25 | 42.45776 | -82.24007 | 10993 ft | 316 kts | 263° |
| 2026-04-24 22:25 | 42.45541 | -82.26875 | 11006 ft | 297 kts | 263° |
| 2026-04-24 22:25 | 42.45321 | -82.29580 | 11010 ft | 282 kts | 263° |
| 2026-04-24 22:26 | 42.45112 | -82.32187 | 10832 ft | 276 kts | 263° |
| 2026-04-24 22:26 | 42.44873 | -82.34750 | 10497 ft | 273 kts | 261° |
| 2026-04-24 22:26 | 42.44581 | -82.37282 | 10161 ft | 271 kts | 259° |
| 2026-04-24 22:26 | 42.44267 | -82.39787 | 9845 ft | 269 kts | 259° |
| 2026-04-24 22:27 | 42.43948 | -82.42273 | 9444 ft | 268 kts | 258° |
| 2026-04-24 22:27 | 42.43636 | -82.44719 | 9049 ft | 267 kts | 258° |
| 2026-04-24 22:27 | 42.43327 | -82.47185 | 8668 ft | 265 kts | 259° |
| 2026-04-24 22:27 | 42.43026 | -82.49631 | 8295 ft | 262 kts | 259° |
| 2026-04-24 22:28 | 42.42729 | -82.52060 | 8017 ft | 260 kts | 259° |
| 2026-04-24 22:28 | 42.42432 | -82.54479 | 8001 ft | 261 kts | 259° |
| 2026-04-24 22:28 | 42.42134 | -82.56908 | 8000 ft | 262 kts | 259° |
| 2026-04-24 22:28 | 42.41834 | -82.59341 | 8001 ft | 262 kts | 259° |
| 2026-04-24 22:29 | 42.41238 | -82.64204 | 8001 ft | 262 kts | 259° |
| 2026-04-24 22:29 | 42.40942 | -82.66638 | 8000 ft | 262 kts | 259° |
| 2026-04-24 22:29 | 42.40641 | -82.69069 | 8004 ft | 262 kts | 258° |
| 2026-04-24 22:30 | 42.40315 | -82.71495 | 8012 ft | 262 kts | 258° |
| 2026-04-24 22:30 | 42.39976 | -82.73918 | 8015 ft | 262 kts | 258° |
| 2026-04-24 22:30 | 42.39635 | -82.76329 | 7880 ft | 260 kts | 257° |
| 2026-04-24 22:30 | 42.39297 | -82.78722 | 7478 ft | 258 kts | 257° |
| 2026-04-24 22:31 | 42.38959 | -82.81092 | 7088 ft | 256 kts | 257° |
| 2026-04-24 22:31 | 42.38624 | -82.83446 | 6711 ft | 253 kts | 257° |
| 2026-04-24 22:31 | 42.38293 | -82.85771 | 6329 ft | 251 kts | 257° |
| 2026-04-24 22:31 | 42.37966 | -82.88079 | 6044 ft | 248 kts | 257° |
| 2026-04-24 22:32 | 42.37641 | -82.90376 | 6022 ft | 249 kts | 257° |
| 2026-04-24 22:32 | 42.37315 | -82.92679 | 6024 ft | 250 kts | 257° |
| 2026-04-24 22:32 | 42.36987 | -82.94989 | 6025 ft | 251 kts | 257° |
| 2026-04-24 22:32 | 42.36658 | -82.97298 | 5920 ft | 249 kts | 257° |
| 2026-04-24 22:33 | 42.36332 | -82.99589 | 5488 ft | 247 kts | 257° |
| 2026-04-24 22:33 | 42.36010 | -83.01835 | 5061 ft | 246 kts | 257° |
| 2026-04-24 22:33 | 42.35682 | -83.04105 | 4635 ft | 245 kts | 257° |
| 2026-04-24 22:33 | 42.35357 | -83.06360 | 4207 ft | 244 kts | 257° |
| 2026-04-24 22:34 | 42.35036 | -83.08591 | 4018 ft | 236 kts | 257° |
| 2026-04-24 22:34 | 42.34738 | -83.10692 | 4019 ft | 220 kts | 257° |
| 2026-04-24 22:34 | 42.34454 | -83.12692 | 3820 ft | 215 kts | 257° |
| 2026-04-24 22:34 | 42.34168 | -83.14679 | 3442 ft | 216 kts | 257° |
| 2026-04-24 22:35 | 42.33879 | -83.16674 | 3081 ft | 216 kts | 256° |
| 2026-04-24 22:35 | 42.33600 | -83.18599 | 3008 ft | 202 kts | 256° |
| 2026-04-24 22:35 | 42.33330 | -83.20458 | 3000 ft | 200 kts | 255° |
| 2026-04-24 22:35 | 42.33067 | -83.22282 | 2998 ft | 197 kts | 256° |
| 2026-04-24 22:36 | 42.32769 | -83.24066 | 2980 ft | 189 kts | 247° |
| 2026-04-24 22:36 | 42.32138 | -83.25548 | 2860 ft | 178 kts | 228° |
| 2026-04-24 22:36 | 42.31213 | -83.26578 | 2709 ft | 169 kts | 210° |
| 2026-04-24 22:36 | 42.30194 | -83.27328 | 2477 ft | 164 kts | 210° |
| 2026-04-24 22:37 | 42.29217 | -83.28051 | 2262 ft | 154 kts | 210° |
| 2026-04-24 22:37 | 42.28309 | -83.28723 | 2071 ft | 143 kts | 210° |
| 2026-04-24 22:37 | 42.27464 | -83.29347 | 1885 ft | 138 kts | 210° |
| 2026-04-24 22:37 | 42.26623 | -83.29969 | 1718 ft | 137 kts | 209° |
| 2026-04-24 22:38 | 42.25788 | -83.30586 | 1540 ft | 136 kts | 209° |
| 2026-04-24 22:38 | 42.24959 | -83.31198 | 1350 ft | 139 kts | 207° |
| 2026-04-24 22:38 | 42.24092 | -83.31837 | 1165 ft | 143 kts | 206° |
| 2026-04-24 22:38 | 42.23212 | -83.32487 | 969 ft | 145 kts | 204° |
| 2026-04-24 22:39 | 42.22316 | -83.33153 | 767 ft | 148 kts | 206° |
| 2026-04-24 22:39 | 42.21433 | -83.33800 | 646 ft | 130 kts | 209° |
| 2026-04-24 22:39 | 42.20818 | -83.34257 | 646 ft | 79 kts | 208° |
| 2026-04-24 22:39 | 42.20405 | -83.34561 | 648 ft | 56 kts | 208° |
| 2026-04-24 22:40 | 42.20160 | -83.34742 | 646 ft | 29 kts | 209° |
| 2026-04-24 22:40 | 42.20091 | -83.34889 | 646 ft | 13 kts | 286° |
| 2026-04-24 22:40 | 42.20086 | -83.35053 | 647 ft | 24 kts | 270° |
| 2026-04-24 22:40 | 42.20082 | -83.35314 | 647 ft | 28 kts | 268° |
| 2026-04-24 22:41 | 42.20077 | -83.35569 | 648 ft | 26 kts | 269° |
| 2026-04-24 22:41 | 42.20073 | -83.35807 | 646 ft | 25 kts | 269° |
| 2026-04-24 22:41 | 42.20069 | -83.36028 | 646 ft | 22 kts | 269° |
| 2026-04-24 22:41 | 42.20071 | -83.36159 | 646 ft | 19 kts | 274° |
| 2026-04-24 22:42 | 42.20095 | -83.36348 | 646 ft | 12 kts | 281° |
| 2026-04-24 22:42 | 42.20125 | -83.36427 | 646 ft | 9 kts | 330° |
| 2026-04-24 22:42 | 42.20195 | -83.36418 | 646 ft | 9 kts | 11° |
| 2026-04-24 22:42 | 42.20255 | -83.36402 | 646 ft | 10 kts | 12° |
| 2026-04-24 22:43 | 42.20327 | -83.36369 | 646 ft | 9 kts | 26° |
| 2026-04-24 22:43 | 42.20368 | -83.36340 | 647 ft | 8 kts | 29° |
| 2026-04-24 22:43 | 42.20394 | -83.36294 | 646 ft | 6 kts | 86° |
| 2026-04-24 22:43 | 42.20380 | -83.36253 | 648 ft | 2 kts | 119° |
| 2026-04-24 22:44 | 42.20375 | -83.36240 | 648 ft | 3 kts | 118° |
| 2026-04-24 22:44 | 42.20369 | -83.36225 | 646 ft | 1 kts | 118° |
| 2026-04-24 22:44 | 42.20364 | -83.36214 | 646 ft | 1 kts | 118° |
| 2026-04-24 22:44 | 42.20363 | -83.36211 | 646 ft | 0 kts | 118° |